Milford, MA (01757)

01:50 PM EDT die 01o April, anno 2015 (GMT -0400)
Congress St | | Change Station
CLOSE
Current Station
Personal Weather Stations
Location: Milford, MA
Elevation: 394 ft
Nearby Weather Stations

Elev 394 ft 42.15 °N, 71.53 °W | Updated 4 seconds ago

Serena
Serena
46.6 °F
Feels Like 47 °F
N
1.9
Ventus Variabilis Ventus from Inter Aquilonem et Eurum
Gusts 7.0 mph

Hodie
High -- | Low -- °F
--% Chance of Precip.
Yesterday
High -- | Low -- °F
Precip. -- in
6:29 AM 7:11 PM
Waxing Gibbous, 93% visible
Pressio 29.97 in
Visibilitas 10.0 milia passuum
Clouds Serena
Frigus Venti 47 °F
Frigus in quo Ros apparet 18 °F
Umor 32%
Rainfall 0.00 in
Snow Depth Not available.
UV 0.5 out of 12
Pollen 5.50 out of 12
Air Quality Not available.
Flu Activity Not available.
METAR KSFZ 011735Z 32013KT 10SM CLR 06/M13 A2997 RMK AO1

More Conditions Fewer Conditions

Pressio 29.97 in
Visibilitas 10.0 milia passuum
Clouds Serena
Frigus Venti 47 °F
Frigus in quo Ros apparet 18 °F
Umor 32%
Rainfall 0.00 in
Snow Depth Not available.
UV 0.5 out of 12
Pollen 5.50 out of 12
Air Quality Not available.
Flu Activity Not available.
METAR KSFZ 011735Z 32013KT 10SM CLR 06/M13 A2997 RMK AO1

More Conditions Fewer Conditions

10-Day Weather Forecast

Almanac

Astronomy

Apr. 01, 2015 Rise Set
Actual Time
Civil Twilight
Nautical Twilight
Astronomical Twilight
Moon
Length Of Visible Light
Length of Day
Tomorrow will be .
, % of the Moon is Illuminated

Today's Extremes

State Highs State Lows

Community

WunderPhotos

Upload Photos

1,810,018 photos uploaded!

WunderBlogs® & News

Nearby

Air Quality

  Air Quality AQ Index Pollutant
Not available.

Snow Depth

Station Depth Elevation

Earthquake Activity

City Distance Mag. Time & Date
Minimum magnitude displayed is 2.5.

Coastal Water Temperatures

Locus Calor

Stations

Nearby Weather Stations

Station Location Temp Frigus Venti Frigus in quo Ros apparet Umor Ventus Precip. Elev Renovata Type